sensor_id;sensor_type;location;lat;lon;timestamp;temperature;humidity
3408;DHT22;1717;50.240;8.406;2022-10-03T00:00:29;14.20;99.90
3408;DHT22;1717;50.240;8.406;2022-10-03T00:03:28;14.20;99.90
3408;DHT22;1717;50.240;8.406;2022-10-03T00:06:09;14.20;99.90
3408;DHT22;1717;50.240;8.406;2022-10-03T00:11:44;14.20;99.90
3408;DHT22;1717;50.240;8.406;2022-10-03T00:14:26;14.20;99.90
3408;DHT22;1717;50.240;8.406;2022-10-03T00:17:02;14.20;99.90
3408;DHT22;1717;50.240;8.406;2022-10-03T00:22:07;14.20;99.90
3408;DHT22;1717;50.240;8.406;2022-10-03T00:24:46;14.30;99.90
3408;DHT22;1717;50.240;8.406;2022-10-03T00:27:24;14.30;99.90
3408;DHT22;1717;50.240;8.406;2022-10-03T00:30:01;14.30;99.90
3408;DHT22;1717;50.240;8.406;2022-10-03T00:32:44;14.30;99.90
3408;DHT22;1717;50.240;8.406;2022-10-03T00:35:23;14.30;99.90
3408;DHT22;1717;50.240;8.406;2022-10-03T00:38:06;14.20;99.90
3408;DHT22;1717;50.240;8.406;2022-10-03T00:43:59;14.20;99.90
3408;DHT22;1717;50.240;8.406;2022-10-03T00:47:00;14.10;99.90
3408;DHT22;1717;50.240;8.406;2022-10-03T00:52:53;14.20;99.90
3408;DHT22;1717;50.240;8.406;2022-10-03T00:55:32;14.00;99.90
3408;DHT22;1717;50.240;8.406;2022-10-03T01:01:02;14.00;99.90
3408;DHT22;1717;50.240;8.406;2022-10-03T01:03:39;14.00;99.90
3408;DHT22;1717;50.240;8.406;2022-10-03T01:06:20;13.90;99.90
3408;DHT22;1717;50.240;8.406;2022-10-03T01:09:18;13.90;99.90
3408;DHT22;1717;50.240;8.406;2022-10-03T01:11:55;13.90;99.90
3408;DHT22;1717;50.240;8.406;2022-10-03T01:14:39;14.00;99.90
3408;DHT22;1717;50.240;8.406;2022-10-03T01:17:15;14.00;99.90
3408;DHT22;1717;50.240;8.406;2022-10-03T01:19:59;14.00;99.90
3408;DHT22;1717;50.240;8.406;2022-10-03T01:25:38;14.00;99.90
3408;DHT22;1717;50.240;8.406;2022-10-03T01:28:27;14.00;99.90
3408;DHT22;1717;50.240;8.406;2022-10-03T01:31:17;13.90;99.90
3408;DHT22;1717;50.240;8.406;2022-10-03T01:33:49;14.00;99.90
3408;DHT22;1717;50.240;8.406;2022-10-03T01:36:27;14.00;99.90
3408;DHT22;1717;50.240;8.406;2022-10-03T01:39:00;14.00;99.90
3408;DHT22;1717;50.240;8.406;2022-10-03T01:41:34;14.00;99.90
3408;DHT22;1717;50.240;8.406;2022-10-03T01:44:12;14.00;99.90
3408;DHT22;1717;50.240;8.406;2022-10-03T01:46:46;14.00;99.90
3408;DHT22;1717;50.240;8.406;2022-10-03T01:49:19;14.00;99.90
3408;DHT22;1717;50.240;8.406;2022-10-03T01:51:53;14.00;99.90
3408;DHT22;1717;50.240;8.406;2022-10-03T01:54:28;13.90;99.90
3408;DHT22;1717;50.240;8.406;2022-10-03T01:57:01;14.00;99.90
3408;DHT22;1717;50.240;8.406;2022-10-03T01:59:35;14.00;99.90
3408;DHT22;1717;50.240;8.406;2022-10-03T02:02:11;14.00;99.90
3408;DHT22;1717;50.240;8.406;2022-10-03T02:04:47;14.00;99.90
3408;DHT22;1717;50.240;8.406;2022-10-03T02:07:23;14.00;99.90
3408;DHT22;1717;50.240;8.406;2022-10-03T02:10:02;14.00;99.90
3408;DHT22;1717;50.240;8.406;2022-10-03T02:12:35;14.00;99.90
3408;DHT22;1717;50.240;8.406;2022-10-03T02:15:14;14.00;99.90
3408;DHT22;1717;50.240;8.406;2022-10-03T02:17:47;14.00;99.90
3408;DHT22;1717;50.240;8.406;2022-10-03T02:20:30;13.90;99.90
3408;DHT22;1717;50.240;8.406;2022-10-03T02:23:00;13.90;99.90
3408;DHT22;1717;50.240;8.406;2022-10-03T02:25:40;13.90;99.90
3408;DHT22;1717;50.240;8.406;2022-10-03T02:28:30;13.90;99.90
3408;DHT22;1717;50.240;8.406;2022-10-03T02:34:40;13.90;99.90
3408;DHT22;1717;50.240;8.406;2022-10-03T02:37:26;13.90;99.90
3408;DHT22;1717;50.240;8.406;2022-10-03T02:40:37;13.90;99.90
3408;DHT22;1717;50.240;8.406;2022-10-03T02:43:24;13.90;99.90
3408;DHT22;1717;50.240;8.406;2022-10-03T02:46:31;13.90;99.90
3408;DHT22;1717;50.240;8.406;2022-10-03T02:49:34;13.90;99.90
3408;DHT22;1717;50.240;8.406;2022-10-03T02:52:38;13.90;99.90
3408;DHT22;1717;50.240;8.406;2022-10-03T02:55:26;13.90;99.90
3408;DHT22;1717;50.240;8.406;2022-10-03T02:58:20;13.90;99.90
3408;DHT22;1717;50.240;8.406;2022-10-03T03:10:31;13.90;99.90
3408;DHT22;1717;50.240;8.406;2022-10-03T03:16:31;13.90;99.90
3408;DHT22;1717;50.240;8.406;2022-10-03T03:19:35;13.80;99.90
3408;DHT22;1717;50.240;8.406;2022-10-03T03:22:15;13.80;99.90
3408;DHT22;1717;50.240;8.406;2022-10-03T03:24:58;13.80;99.90
3408;DHT22;1717;50.240;8.406;2022-10-03T03:27:42;13.80;99.90
3408;DHT22;1717;50.240;8.406;2022-10-03T03:30:15;13.70;99.90
3408;DHT22;1717;50.240;8.406;2022-10-03T03:32:55;13.70;99.90
3408;DHT22;1717;50.240;8.406;2022-10-03T03:35:35;13.70;99.90
3408;DHT22;1717;50.240;8.406;2022-10-03T03:38:15;13.70;99.90
3408;DHT22;1717;50.240;8.406;2022-10-03T03:40:55;13.70;99.90
3408;DHT22;1717;50.240;8.406;2022-10-03T03:43:58;13.70;99.90
3408;DHT22;1717;50.240;8.406;2022-10-03T03:46:44;13.70;99.90
3408;DHT22;1717;50.240;8.406;2022-10-03T03:49:28;13.70;99.90
3408;DHT22;1717;50.240;8.406;2022-10-03T03:52:18;13.70;99.90
3408;DHT22;1717;50.240;8.406;2022-10-03T03:58:08;13.60;99.90
3408;DHT22;1717;50.240;8.406;2022-10-03T04:00:55;13.60;99.90
3408;DHT22;1717;50.240;8.406;2022-10-03T04:03:36;13.60;99.90
3408;DHT22;1717;50.240;8.406;2022-10-03T04:06:25;13.60;99.90
3408;DHT22;1717;50.240;8.406;2022-10-03T04:09:24;13.60;99.90
3408;DHT22;1717;50.240;8.406;2022-10-03T04:12:01;13.60;99.90
3408;DHT22;1717;50.240;8.406;2022-10-03T04:14:48;13.60;99.90
3408;DHT22;1717;50.240;8.406;2022-10-03T04:17:42;13.60;99.90
3408;DHT22;1717;50.240;8.406;2022-10-03T04:21:04;13.50;99.90
3408;DHT22;1717;50.240;8.406;2022-10-03T04:23:47;13.50;99.90
3408;DHT22;1717;50.240;8.406;2022-10-03T04:26:31;13.50;99.90
3408;DHT22;1717;50.240;8.406;2022-10-03T04:29:20;13.50;99.90
3408;DHT22;1717;50.240;8.406;2022-10-03T04:32:01;13.20;99.90
3408;DHT22;1717;50.240;8.406;2022-10-03T04:34:39;13.50;99.90
3408;DHT22;1717;50.240;8.406;2022-10-03T04:37:16;13.50;99.90
3408;DHT22;1717;50.240;8.406;2022-10-03T04:40:01;13.50;99.90
3408;DHT22;1717;50.240;8.406;2022-10-03T04:42:46;13.60;99.90
3408;DHT22;1717;50.240;8.406;2022-10-03T04:45:34;13.50;99.90
3408;DHT22;1717;50.240;8.406;2022-10-03T04:48:09;13.50;99.90
3408;DHT22;1717;50.240;8.406;2022-10-03T04:50:43;13.50;99.90
3408;DHT22;1717;50.240;8.406;2022-10-03T04:53:28;13.50;99.90
3408;DHT22;1717;50.240;8.406;2022-10-03T04:56:33;13.50;99.90
3408;DHT22;1717;50.240;8.406;2022-10-03T04:59:10;13.40;99.90
3408;DHT22;1717;50.240;8.406;2022-10-03T05:01:43;13.40;99.90
3408;DHT22;1717;50.240;8.406;2022-10-03T05:04:23;13.40;99.90
3408;DHT22;1717;50.240;8.406;2022-10-03T05:07:00;13.40;99.90
3408;DHT22;1717;50.240;8.406;2022-10-03T05:09:38;13.30;99.90
3408;DHT22;1717;50.240;8.406;2022-10-03T05:12:11;13.30;99.90
3408;DHT22;1717;50.240;8.406;2022-10-03T05:14:56;13.30;99.90
3408;DHT22;1717;50.240;8.406;2022-10-03T05:17:29;13.30;99.90
3408;DHT22;1717;50.240;8.406;2022-10-03T05:20:21;13.30;99.90
3408;DHT22;1717;50.240;8.406;2022-10-03T05:22:57;13.30;99.90
3408;DHT22;1717;50.240;8.406;2022-10-03T05:25:34;13.30;99.90
3408;DHT22;1717;50.240;8.406;2022-10-03T05:28:14;13.30;99.90
3408;DHT22;1717;50.240;8.406;2022-10-03T05:30:49;13.30;99.90
3408;DHT22;1717;50.240;8.406;2022-10-03T05:33:27;13.30;99.90
3408;DHT22;1717;50.240;8.406;2022-10-03T05:36:15;13.30;99.90
3408;DHT22;1717;50.240;8.406;2022-10-03T05:42:30;13.30;99.90
3408;DHT22;1717;50.240;8.406;2022-10-03T05:45:03;13.30;99.90
3408;DHT22;1717;50.240;8.406;2022-10-03T05:47:41;13.30;99.90
3408;DHT22;1717;50.240;8.406;2022-10-03T05:50:33;13.30;99.90
3408;DHT22;1717;50.240;8.406;2022-10-03T05:53:50;13.30;99.90
3408;DHT22;1717;50.240;8.406;2022-10-03T05:56:29;13.30;99.90
3408;DHT22;1717;50.240;8.406;2022-10-03T05:59:33;13.50;99.90
3408;DHT22;1717;50.240;8.406;2022-10-03T06:05:28;13.40;99.90
3408;DHT22;1717;50.240;8.406;2022-10-03T06:11:03;13.40;99.90
3408;DHT22;1717;50.240;8.406;2022-10-03T06:13:47;13.50;99.90
3408;DHT22;1717;50.240;8.406;2022-10-03T06:16:26;13.50;99.90
3408;DHT22;1717;50.240;8.406;2022-10-03T06:19:29;13.40;99.90
3408;DHT22;1717;50.240;8.406;2022-10-03T06:22:25;13.50;99.90
3408;DHT22;1717;50.240;8.406;2022-10-03T06:28:22;13.50;99.90
3408;DHT22;1717;50.240;8.406;2022-10-03T06:34:34;13.50;99.90
3408;DHT22;1717;50.240;8.406;2022-10-03T06:43:44;13.60;99.90
3408;DHT22;1717;50.240;8.406;2022-10-03T06:49:40;13.70;99.90
3408;DHT22;1717;50.240;8.406;2022-10-03T06:52:30;13.70;99.90
3408;DHT22;1717;50.240;8.406;2022-10-03T06:55:42;13.70;99.90
3408;DHT22;1717;50.240;8.406;2022-10-03T07:07:30;13.90;99.90
3408;DHT22;1717;50.240;8.406;2022-10-03T07:10:24;13.90;99.90
3408;DHT22;1717;50.240;8.406;2022-10-03T07:13:15;13.90;99.90
3408;DHT22;1717;50.240;8.406;2022-10-03T07:19:12;14.00;99.90
3408;DHT22;1717;50.240;8.406;2022-10-03T07:30:58;14.00;99.90
3408;DHT22;1717;50.240;8.406;2022-10-03T07:37:00;14.10;99.90
3408;DHT22;1717;50.240;8.406;2022-10-03T07:46:16;14.20;99.90
3408;DHT22;1717;50.240;8.406;2022-10-03T07:49:16;14.30;99.90
3408;DHT22;1717;50.240;8.406;2022-10-03T07:52:02;14.30;99.90
3408;DHT22;1717;50.240;8.406;2022-10-03T07:55:00;14.20;99.90
3408;DHT22;1717;50.240;8.406;2022-10-03T07:57:57;14.30;99.90
3408;DHT22;1717;50.240;8.406;2022-10-03T08:00:39;14.30;99.90
3408;DHT22;1717;50.240;8.406;2022-10-03T08:03:49;14.30;99.90
3408;DHT22;1717;50.240;8.406;2022-10-03T08:06:23;14.40;99.90
3408;DHT22;1717;50.240;8.406;2022-10-03T08:09:21;14.30;99.90
3408;DHT22;1717;50.240;8.406;2022-10-03T08:14:46;14.10;99.90
3408;DHT22;1717;50.240;8.406;2022-10-03T08:17:49;14.00;99.90
3408;DHT22;1717;50.240;8.406;2022-10-03T08:20:33;13.80;99.90
3408;DHT22;1717;50.240;8.406;2022-10-03T08:23:25;13.70;99.90
3408;DHT22;1717;50.240;8.406;2022-10-03T08:26:06;13.70;99.90
3408;DHT22;1717;50.240;8.406;2022-10-03T08:28:47;13.50;99.90
3408;DHT22;1717;50.240;8.406;2022-10-03T08:34:52;13.40;99.90
3408;DHT22;1717;50.240;8.406;2022-10-03T08:40:51;13.40;99.90
3408;DHT22;1717;50.240;8.406;2022-10-03T08:46:53;13.40;99.90
3408;DHT22;1717;50.240;8.406;2022-10-03T08:49:53;13.50;99.90
3408;DHT22;1717;50.240;8.406;2022-10-03T08:52:35;13.50;99.90
3408;DHT22;1717;50.240;8.406;2022-10-03T08:55:32;13.50;99.90
3408;DHT22;1717;50.240;8.406;2022-10-03T08:58:41;13.50;99.90
3408;DHT22;1717;50.240;8.406;2022-10-03T09:01:30;13.50;99.90
3408;DHT22;1717;50.240;8.406;2022-10-03T09:04:32;13.50;99.90
3408;DHT22;1717;50.240;8.406;2022-10-03T09:07:15;13.60;99.90
3408;DHT22;1717;50.240;8.406;2022-10-03T09:13:19;13.60;99.90
3408;DHT22;1717;50.240;8.406;2022-10-03T09:19:03;13.70;99.90
3408;DHT22;1717;50.240;8.406;2022-10-03T09:22:04;13.70;99.90
3408;DHT22;1717;50.240;8.406;2022-10-03T09:27:53;13.80;99.90
3408;DHT22;1717;50.240;8.406;2022-10-03T09:30:45;13.70;99.90
3408;DHT22;1717;50.240;8.406;2022-10-03T09:33:53;13.70;99.90
3408;DHT22;1717;50.240;8.406;2022-10-03T09:39:48;13.60;99.90
3408;DHT22;1717;50.240;8.406;2022-10-03T09:45:44;13.50;99.90
3408;DHT22;1717;50.240;8.406;2022-10-03T09:48:43;13.60;99.90
3408;DHT22;1717;50.240;8.406;2022-10-03T09:51:47;13.60;99.90
3408;DHT22;1717;50.240;8.406;2022-10-03T09:54:32;13.70;99.90
3408;DHT22;1717;50.240;8.406;2022-10-03T10:00:23;13.60;99.90
3408;DHT22;1717;50.240;8.406;2022-10-03T10:03:42;13.60;99.90
3408;DHT22;1717;50.240;8.406;2022-10-03T10:06:55;13.60;99.90
3408;DHT22;1717;50.240;8.406;2022-10-03T10:09:52;13.60;99.90
3408;DHT22;1717;50.240;8.406;2022-10-03T10:12:56;13.60;99.90
3408;DHT22;1717;50.240;8.406;2022-10-03T10:16:00;13.70;99.90
3408;DHT22;1717;50.240;8.406;2022-10-03T10:19:08;13.80;99.90
3408;DHT22;1717;50.240;8.406;2022-10-03T10:22:09;13.90;99.90
3408;DHT22;1717;50.240;8.406;2022-10-03T10:34:26;14.10;99.90
3408;DHT22;1717;50.240;8.406;2022-10-03T10:49:49;14.50;99.90
3408;DHT22;1717;50.240;8.406;2022-10-03T10:52:46;14.50;99.90
3408;DHT22;1717;50.240;8.406;2022-10-03T10:55:54;14.40;99.90
3408;DHT22;1717;50.240;8.406;2022-10-03T10:59:01;14.40;99.90
3408;DHT22;1717;50.240;8.406;2022-10-03T11:05:09;14.50;99.90
3408;DHT22;1717;50.240;8.406;2022-10-03T11:11:05;14.70;99.90
3408;DHT22;1717;50.240;8.406;2022-10-03T11:14:14;14.80;99.90
3408;DHT22;1717;50.240;8.406;2022-10-03T11:20:42;14.90;99.90
3408;DHT22;1717;50.240;8.406;2022-10-03T11:39:04;15.20;99.90
3408;DHT22;1717;50.240;8.406;2022-10-03T11:41:39;15.20;99.90
3408;DHT22;1717;50.240;8.406;2022-10-03T11:44:18;15.20;99.90
3408;DHT22;1717;50.240;8.406;2022-10-03T11:49:56;15.20;99.90
3408;DHT22;1717;50.240;8.406;2022-10-03T11:52:30;15.20;99.90
3408;DHT22;1717;50.240;8.406;2022-10-03T11:55:20;15.30;99.90
3408;DHT22;1717;50.240;8.406;2022-10-03T11:58:01;15.30;99.90
3408;DHT22;1717;50.240;8.406;2022-10-03T12:00:32;15.30;99.90
3408;DHT22;1717;50.240;8.406;2022-10-03T12:03:19;15.30;99.90
3408;DHT22;1717;50.240;8.406;2022-10-03T12:05:55;15.30;99.90
3408;DHT22;1717;50.240;8.406;2022-10-03T12:08:40;15.20;99.90
3408;DHT22;1717;50.240;8.406;2022-10-03T12:11:27;15.20;99.90
3408;DHT22;1717;50.240;8.406;2022-10-03T12:14:18;15.30;99.90
3408;DHT22;1717;50.240;8.406;2022-10-03T12:17:03;15.40;99.90
3408;DHT22;1717;50.240;8.406;2022-10-03T12:19:37;15.60;99.90
3408;DHT22;1717;50.240;8.406;2022-10-03T12:22:20;15.50;99.90
3408;DHT22;1717;50.240;8.406;2022-10-03T12:24:56;15.60;99.70
3408;DHT22;1717;50.240;8.406;2022-10-03T12:27:33;15.70;99.90
3408;DHT22;1717;50.240;8.406;2022-10-03T12:30:04;15.80;99.90
3408;DHT22;1717;50.240;8.406;2022-10-03T12:32:44;15.80;99.90
3408;DHT22;1717;50.240;8.406;2022-10-03T12:35:32;15.80;99.90
3408;DHT22;1717;50.240;8.406;2022-10-03T12:38:08;15.80;99.90
3408;DHT22;1717;50.240;8.406;2022-10-03T12:40:44;15.80;99.90
3408;DHT22;1717;50.240;8.406;2022-10-03T12:43:29;15.80;99.90
3408;DHT22;1717;50.240;8.406;2022-10-03T12:46:02;15.90;99.90
3408;DHT22;1717;50.240;8.406;2022-10-03T12:48:43;15.90;99.90
3408;DHT22;1717;50.240;8.406;2022-10-03T12:51:35;16.10;99.90
3408;DHT22;1717;50.240;8.406;2022-10-03T12:54:14;16.30;99.90
3408;DHT22;1717;50.240;8.406;2022-10-03T12:56:47;16.40;99.90
3408;DHT22;1717;50.240;8.406;2022-10-03T12:59:28;16.60;99.90
3408;DHT22;1717;50.240;8.406;2022-10-03T13:02:16;16.80;99.90
3408;DHT22;1717;50.240;8.406;2022-10-03T13:05:07;17.00;99.90
3408;DHT22;1717;50.240;8.406;2022-10-03T13:07:49;17.20;99.90
3408;DHT22;1717;50.240;8.406;2022-10-03T13:10:25;17.40;99.90
3408;DHT22;1717;50.240;8.406;2022-10-03T13:13:03;17.60;99.90
3408;DHT22;1717;50.240;8.406;2022-10-03T13:15:56;17.80;99.90
3408;DHT22;1717;50.240;8.406;2022-10-03T13:18:47;17.90;99.90
3408;DHT22;1717;50.240;8.406;2022-10-03T13:21:20;18.00;99.90
3408;DHT22;1717;50.240;8.406;2022-10-03T13:23:54;18.10;99.90
3408;DHT22;1717;50.240;8.406;2022-10-03T13:26:27;18.30;99.90
3408;DHT22;1717;50.240;8.406;2022-10-03T13:29:18;18.30;99.90
3408;DHT22;1717;50.240;8.406;2022-10-03T13:34:52;18.50;99.90
3408;DHT22;1717;50.240;8.406;2022-10-03T13:37:27;18.60;99.90
3408;DHT22;1717;50.240;8.406;2022-10-03T13:40:03;18.70;99.90
3408;DHT22;1717;50.240;8.406;2022-10-03T13:42:37;18.80;99.90
3408;DHT22;1717;50.240;8.406;2022-10-03T13:45:11;18.90;99.90
3408;DHT22;1717;50.240;8.406;2022-10-03T13:47:47;18.90;99.90
3408;DHT22;1717;50.240;8.406;2022-10-03T13:50:22;18.90;99.90
3408;DHT22;1717;50.240;8.406;2022-10-03T13:52:54;19.00;99.90
3408;DHT22;1717;50.240;8.406;2022-10-03T13:55:35;19.00;99.60
3408;DHT22;1717;50.240;8.406;2022-10-03T13:58:27;19.10;99.40
3408;DHT22;1717;50.240;8.406;2022-10-03T14:01:23;19.10;99.10
3408;DHT22;1717;50.240;8.406;2022-10-03T14:04:14;19.20;98.90
3408;DHT22;1717;50.240;8.406;2022-10-03T14:06:54;19.20;99.00
3408;DHT22;1717;50.240;8.406;2022-10-03T14:09:34;19.20;99.20
3408;DHT22;1717;50.240;8.406;2022-10-03T14:12:11;19.30;99.40
3408;DHT22;1717;50.240;8.406;2022-10-03T14:15:03;19.30;99.70
3408;DHT22;1717;50.240;8.406;2022-10-03T14:17:39;19.30;99.50
3408;DHT22;1717;50.240;8.406;2022-10-03T14:20:19;19.40;99.80
3408;DHT22;1717;50.240;8.406;2022-10-03T14:22:57;19.40;99.90
3408;DHT22;1717;50.240;8.406;2022-10-03T14:25:29;19.40;99.80
3408;DHT22;1717;50.240;8.406;2022-10-03T14:28:05;19.40;99.40
3408;DHT22;1717;50.240;8.406;2022-10-03T14:30:49;19.40;99.30
3408;DHT22;1717;50.240;8.406;2022-10-03T14:33:24;19.40;99.20
3408;DHT22;1717;50.240;8.406;2022-10-03T14:36:07;19.50;99.20
3408;DHT22;1717;50.240;8.406;2022-10-03T14:38:50;19.40;98.80
3408;DHT22;1717;50.240;8.406;2022-10-03T14:41:34;19.40;98.40
3408;DHT22;1717;50.240;8.406;2022-10-03T14:44:07;19.50;98.30
3408;DHT22;1717;50.240;8.406;2022-10-03T14:46:41;19.50;98.30
3408;DHT22;1717;50.240;8.406;2022-10-03T14:49:17;19.50;98.60
3408;DHT22;1717;50.240;8.406;2022-10-03T14:51:50;19.50;97.90
3408;DHT22;1717;50.240;8.406;2022-10-03T14:54:21;19.50;98.00
3408;DHT22;1717;50.240;8.406;2022-10-03T14:56:50;19.50;97.80
3408;DHT22;1717;50.240;8.406;2022-10-03T14:59:20;19.50;97.60
3408;DHT22;1717;50.240;8.406;2022-10-03T15:01:51;19.50;97.60
3408;DHT22;1717;50.240;8.406;2022-10-03T15:04:27;19.50;97.30
3408;DHT22;1717;50.240;8.406;2022-10-03T15:06:58;19.50;97.60
3408;DHT22;1717;50.240;8.406;2022-10-03T15:09:39;19.50;97.50
3408;DHT22;1717;50.240;8.406;2022-10-03T15:12:10;19.50;97.70
3408;DHT22;1717;50.240;8.406;2022-10-03T15:14:43;19.60;97.20
3408;DHT22;1717;50.240;8.406;2022-10-03T15:17:18;19.60;97.50
3408;DHT22;1717;50.240;8.406;2022-10-03T15:19:50;19.60;97.50
3408;DHT22;1717;50.240;8.406;2022-10-03T15:22:29;19.60;97.60
3408;DHT22;1717;50.240;8.406;2022-10-03T15:25:02;19.60;97.60
3408;DHT22;1717;50.240;8.406;2022-10-03T15:27:31;19.60;97.60
3408;DHT22;1717;50.240;8.406;2022-10-03T15:30:02;19.70;97.40
3408;DHT22;1717;50.240;8.406;2022-10-03T15:32:34;19.70;97.40
3408;DHT22;1717;50.240;8.406;2022-10-03T15:35:04;19.80;97.50
3408;DHT22;1717;50.240;8.406;2022-10-03T15:37:38;19.80;97.50
3408;DHT22;1717;50.240;8.406;2022-10-03T15:40:09;19.80;96.90
3408;DHT22;1717;50.240;8.406;2022-10-03T15:42:48;19.90;96.60
3408;DHT22;1717;50.240;8.406;2022-10-03T15:45:23;19.90;96.00
3408;DHT22;1717;50.240;8.406;2022-10-03T15:47:55;19.80;95.90
3408;DHT22;1717;50.240;8.406;2022-10-03T15:50:28;19.80;95.60
3408;DHT22;1717;50.240;8.406;2022-10-03T15:56:25;19.70;95.60
3408;DHT22;1717;50.240;8.406;2022-10-03T15:59:00;19.60;95.70
3408;DHT22;1717;50.240;8.406;2022-10-03T16:01:32;19.60;96.00
3408;DHT22;1717;50.240;8.406;2022-10-03T16:04:02;19.50;96.20
3408;DHT22;1717;50.240;8.406;2022-10-03T16:06:36;19.50;96.30
3408;DHT22;1717;50.240;8.406;2022-10-03T16:09:12;19.40;96.20
3408;DHT22;1717;50.240;8.406;2022-10-03T16:11:48;19.40;96.80
3408;DHT22;1717;50.240;8.406;2022-10-03T16:14:22;19.30;97.30
3408;DHT22;1717;50.240;8.406;2022-10-03T16:16:52;19.30;97.50
3408;DHT22;1717;50.240;8.406;2022-10-03T16:19:26;19.30;97.80
3408;DHT22;1717;50.240;8.406;2022-10-03T16:22:05;19.40;97.70
3408;DHT22;1717;50.240;8.406;2022-10-03T16:24:40;19.30;98.10
3408;DHT22;1717;50.240;8.406;2022-10-03T16:27:13;19.30;98.10
3408;DHT22;1717;50.240;8.406;2022-10-03T16:29:46;19.30;98.30
3408;DHT22;1717;50.240;8.406;2022-10-03T16:32:20;19.30;98.40
3408;DHT22;1717;50.240;8.406;2022-10-03T16:34:49;19.20;98.60
3408;DHT22;1717;50.240;8.406;2022-10-03T16:37:19;19.20;98.90
3408;DHT22;1717;50.240;8.406;2022-10-03T16:39:56;19.10;99.20
3408;DHT22;1717;50.240;8.406;2022-10-03T16:42:26;19.00;99.60
3408;DHT22;1717;50.240;8.406;2022-10-03T16:44:57;18.90;99.90
3408;DHT22;1717;50.240;8.406;2022-10-03T16:47:31;18.80;99.90
3408;DHT22;1717;50.240;8.406;2022-10-03T16:50:01;18.70;99.90
3408;DHT22;1717;50.240;8.406;2022-10-03T16:52:47;18.70;99.90
3408;DHT22;1717;50.240;8.406;2022-10-03T16:55:21;18.50;99.90
3408;DHT22;1717;50.240;8.406;2022-10-03T16:57:55;18.50;99.90
3408;DHT22;1717;50.240;8.406;2022-10-03T17:00:24;18.40;99.90
3408;DHT22;1717;50.240;8.406;2022-10-03T17:02:55;18.30;99.90
3408;DHT22;1717;50.240;8.406;2022-10-03T17:05:23;18.30;99.90
3408;DHT22;1717;50.240;8.406;2022-10-03T17:07:52;18.20;99.90
3408;DHT22;1717;50.240;8.406;2022-10-03T17:10:31;18.10;99.90
3408;DHT22;1717;50.240;8.406;2022-10-03T17:13:01;18.00;99.90
3408;DHT22;1717;50.240;8.406;2022-10-03T17:15:32;17.90;99.90
3408;DHT22;1717;50.240;8.406;2022-10-03T17:18:09;17.70;99.90
3408;DHT22;1717;50.240;8.406;2022-10-03T17:20:43;17.70;99.90
3408;DHT22;1717;50.240;8.406;2022-10-03T17:23:29;17.50;99.90
3408;DHT22;1717;50.240;8.406;2022-10-03T17:26:07;17.40;99.90
3408;DHT22;1717;50.240;8.406;2022-10-03T17:28:39;17.30;99.90
3408;DHT22;1717;50.240;8.406;2022-10-03T17:34:02;17.20;99.90
3408;DHT22;1717;50.240;8.406;2022-10-03T17:36:43;17.10;99.90
3408;DHT22;1717;50.240;8.406;2022-10-03T17:39:24;17.10;99.90
3408;DHT22;1717;50.240;8.406;2022-10-03T17:42:00;16.90;99.90
3408;DHT22;1717;50.240;8.406;2022-10-03T17:44:35;16.80;99.90
3408;DHT22;1717;50.240;8.406;2022-10-03T17:47:11;16.70;99.90
3408;DHT22;1717;50.240;8.406;2022-10-03T17:49:49;16.60;99.90
3408;DHT22;1717;50.240;8.406;2022-10-03T17:52:22;16.50;99.90
3408;DHT22;1717;50.240;8.406;2022-10-03T17:54:54;16.50;99.90
3408;DHT22;1717;50.240;8.406;2022-10-03T17:57:26;16.40;99.90
3408;DHT22;1717;50.240;8.406;2022-10-03T17:59:56;16.30;99.90
3408;DHT22;1717;50.240;8.406;2022-10-03T18:02:34;16.20;99.90
3408;DHT22;1717;50.240;8.406;2022-10-03T18:05:09;16.20;99.90
3408;DHT22;1717;50.240;8.406;2022-10-03T18:07:39;16.10;99.90
3408;DHT22;1717;50.240;8.406;2022-10-03T18:10:19;16.00;99.90
3408;DHT22;1717;50.240;8.406;2022-10-03T18:12:49;15.90;99.90
3408;DHT22;1717;50.240;8.406;2022-10-03T18:18:46;15.80;99.90
3408;DHT22;1717;50.240;8.406;2022-10-03T18:21:18;15.70;99.90
3408;DHT22;1717;50.240;8.406;2022-10-03T18:24:13;15.60;99.90
3408;DHT22;1717;50.240;8.406;2022-10-03T18:26:45;15.60;99.90
3408;DHT22;1717;50.240;8.406;2022-10-03T18:29:20;15.60;99.90
3408;DHT22;1717;50.240;8.406;2022-10-03T18:31:54;15.50;99.90
3408;DHT22;1717;50.240;8.406;2022-10-03T18:34:26;15.50;99.90
3408;DHT22;1717;50.240;8.406;2022-10-03T18:36:55;15.40;99.90
3408;DHT22;1717;50.240;8.406;2022-10-03T18:39:28;15.30;99.90
3408;DHT22;1717;50.240;8.406;2022-10-03T18:41:58;15.30;99.90
3408;DHT22;1717;50.240;8.406;2022-10-03T18:44:29;15.20;99.90
3408;DHT22;1717;50.240;8.406;2022-10-03T18:47:06;15.20;99.90
3408;DHT22;1717;50.240;8.406;2022-10-03T18:49:38;15.10;99.90
3408;DHT22;1717;50.240;8.406;2022-10-03T18:52:13;15.00;99.90
3408;DHT22;1717;50.240;8.406;2022-10-03T18:54:50;15.00;99.90
3408;DHT22;1717;50.240;8.406;2022-10-03T18:57:24;15.00;99.90
3408;DHT22;1717;50.240;8.406;2022-10-03T18:59:59;15.00;99.90
3408;DHT22;1717;50.240;8.406;2022-10-03T19:02:34;14.90;99.90
3408;DHT22;1717;50.240;8.406;2022-10-03T19:05:08;14.90;99.90
3408;DHT22;1717;50.240;8.406;2022-10-03T19:07:44;14.80;99.90
3408;DHT22;1717;50.240;8.406;2022-10-03T19:10:26;14.80;99.90
3408;DHT22;1717;50.240;8.406;2022-10-03T19:13:02;14.70;99.90
3408;DHT22;1717;50.240;8.406;2022-10-03T19:15:46;14.70;99.90
3408;DHT22;1717;50.240;8.406;2022-10-03T19:18:20;14.70;99.90
3408;DHT22;1717;50.240;8.406;2022-10-03T19:20:51;14.60;99.90
3408;DHT22;1717;50.240;8.406;2022-10-03T19:23:23;14.60;99.90
3408;DHT22;1717;50.240;8.406;2022-10-03T19:25:54;14.50;99.90
3408;DHT22;1717;50.240;8.406;2022-10-03T19:28:26;14.50;99.90
3408;DHT22;1717;50.240;8.406;2022-10-03T19:31:03;14.40;99.90
3408;DHT22;1717;50.240;8.406;2022-10-03T19:33:36;14.40;99.90
3408;DHT22;1717;50.240;8.406;2022-10-03T19:36:04;14.30;99.90
3408;DHT22;1717;50.240;8.406;2022-10-03T19:38:35;14.30;99.90
3408;DHT22;1717;50.240;8.406;2022-10-03T19:41:10;14.20;99.90
3408;DHT22;1717;50.240;8.406;2022-10-03T19:43:41;14.20;99.90
3408;DHT22;1717;50.240;8.406;2022-10-03T19:46:28;14.20;99.90
3408;DHT22;1717;50.240;8.406;2022-10-03T19:51:48;14.10;99.90
3408;DHT22;1717;50.240;8.406;2022-10-03T19:54:27;14.10;99.90
3408;DHT22;1717;50.240;8.406;2022-10-03T19:56:56;14.00;99.90
3408;DHT22;1717;50.240;8.406;2022-10-03T19:59:36;14.00;99.90
3408;DHT22;1717;50.240;8.406;2022-10-03T20:02:10;14.00;99.90
3408;DHT22;1717;50.240;8.406;2022-10-03T20:04:38;13.90;99.90
3408;DHT22;1717;50.240;8.406;2022-10-03T20:07:14;13.90;99.90
3408;DHT22;1717;50.240;8.406;2022-10-03T20:09:53;13.90;99.90
3408;DHT22;1717;50.240;8.406;2022-10-03T20:12:23;13.90;99.90
3408;DHT22;1717;50.240;8.406;2022-10-03T20:14:52;13.90;99.90
3408;DHT22;1717;50.240;8.406;2022-10-03T20:17:22;13.80;99.90
3408;DHT22;1717;50.240;8.406;2022-10-03T20:19:53;13.80;99.90
3408;DHT22;1717;50.240;8.406;2022-10-03T20:22:25;13.80;99.90
3408;DHT22;1717;50.240;8.406;2022-10-03T20:24:53;13.80;99.90
3408;DHT22;1717;50.240;8.406;2022-10-03T20:27:30;13.70;99.90
3408;DHT22;1717;50.240;8.406;2022-10-03T20:30:06;13.70;99.90
3408;DHT22;1717;50.240;8.406;2022-10-03T20:32:38;13.70;99.90
3408;DHT22;1717;50.240;8.406;2022-10-03T20:35:12;13.60;99.90
3408;DHT22;1717;50.240;8.406;2022-10-03T20:37:47;13.60;99.90
3408;DHT22;1717;50.240;8.406;2022-10-03T20:40:25;13.60;99.90
3408;DHT22;1717;50.240;8.406;2022-10-03T20:43:05;13.60;99.90